Terminal Aerodrome Forecast
Issued by NWS

Home | Current Version | Previous Version | Text Only | Print | Product List | Glossary On
Versions: 1 2 3 4 5 6 7 8 9 10 11 12 13 14 15 16
000
FTUS43 KSGF 262300
TAFJLN
TAF
KJLN 262320Z 2700/2724 34010KT P6SM SKC
     FM270600 VRB04KT P6SM SCT020 OVC050
     FM271400 01008KT P6SM BKN030
     FM271600 01008G15KT P6SM BKN250=

USA.gov is the U.S. government's official web portal to all federal, state and local government web resources and services.